createdAt,value
2023-02-27T00:40:51.478Z,-2.40
2023-02-27T00:43:18.073Z,-2.40
2023-02-27T00:45:44.701Z,-2.40
2023-02-27T00:48:11.322Z,-2.50
2023-02-27T00:50:38.185Z,-2.40
2023-02-27T00:53:05.080Z,-2.40
2023-02-27T00:55:31.833Z,-2.50
2023-02-27T00:57:58.397Z,-2.40
2023-02-27T01:00:25.346Z,-2.40
2023-02-27T01:02:51.978Z,-2.50
2023-02-27T01:05:18.774Z,-2.60
2023-02-27T01:07:45.366Z,-2.50
2023-02-27T01:10:12.576Z,-2.60
2023-02-27T01:12:40.145Z,-2.50
2023-02-27T01:15:08.395Z,-2.60
2023-02-27T01:17:35.039Z,-2.70
2023-02-27T01:20:01.651Z,-2.70
2023-02-27T01:22:28.197Z,-2.70
2023-02-27T01:24:55.090Z,-2.70
2023-02-27T01:27:21.636Z,-2.60
2023-02-27T01:29:48.177Z,-2.60
2023-02-27T01:32:14.888Z,-2.60
2023-02-27T01:34:41.496Z,-2.80
2023-02-27T01:37:08.341Z,-2.70
2023-02-27T01:39:36.530Z,-2.60
2023-02-27T01:42:03.892Z,-2.60
2023-02-27T01:44:51.538Z,-2.70
2023-02-27T01:47:18.176Z,-2.60
2023-02-27T01:49:44.754Z,-2.40
2023-02-27T01:52:13.195Z,-2.50
2023-02-27T01:54:42.035Z,-2.50
2023-02-27T01:57:09.645Z,-2.50
2023-02-27T01:59:38.690Z,-2.60
2023-02-27T02:02:25.127Z,-2.60
2023-02-27T02:04:54.163Z,-2.60
2023-02-27T02:07:21.840Z,-2.50
2023-02-27T02:09:55.014Z,-2.60
2023-02-27T02:12:28.585Z,-2.60
2023-02-27T02:14:55.144Z,-2.50
2023-02-27T02:17:27.614Z,-2.50
2023-02-27T02:20:07.957Z,-2.50
2023-02-27T02:23:04.782Z,-2.50
2023-02-27T02:25:56.003Z,-2.50
2023-02-27T02:28:43.964Z,-2.50
2023-02-27T02:31:49.722Z,-2.60
2023-02-27T02:34:30.621Z,-2.50
2023-02-27T02:37:12.192Z,-2.50
2023-02-27T02:39:57.370Z,-2.40
2023-02-27T02:42:28.218Z,-2.40
2023-02-27T02:45:00.561Z,-2.50
2023-02-27T02:47:46.580Z,-2.60
2023-02-27T02:50:27.379Z,-2.60
2023-02-27T02:53:05.887Z,-2.60
2023-02-27T02:55:45.941Z,-2.50
2023-02-27T02:58:45.860Z,-2.40
2023-02-27T03:01:16.940Z,-2.50
2023-02-27T03:03:49.806Z,-2.40
2023-02-27T03:06:23.433Z,-2.50
2023-02-27T03:08:55.804Z,-2.50
2023-02-27T03:11:30.039Z,-2.50
2023-02-27T03:14:14.198Z,-2.60
2023-02-27T03:16:44.500Z,-2.60
2023-02-27T03:19:21.038Z,-2.50
2023-02-27T03:22:01.542Z,-2.60
2023-02-27T03:24:34.478Z,-2.60
2023-02-27T03:27:03.028Z,-2.50
2023-02-27T03:29:56.600Z,-2.60
2023-02-27T03:32:32.777Z,-2.70
2023-02-27T03:35:00.455Z,-2.70
2023-02-27T03:37:38.795Z,-2.70
2023-02-27T03:40:10.531Z,-2.70
2023-02-27T03:42:42.088Z,-2.60
2023-02-27T03:45:23.612Z,-2.50
2023-02-27T03:47:50.739Z,-2.60
2023-02-27T03:50:18.045Z,-2.60
2023-02-27T03:52:45.547Z,-2.60
2023-02-27T03:55:22.797Z,-2.60
2023-02-27T03:57:51.075Z,-2.70
2023-02-27T04:00:21.249Z,-2.50
2023-02-27T04:02:53.209Z,-2.50
2023-02-27T04:05:21.643Z,-2.60
2023-02-27T04:08:13.133Z,-2.60
2023-02-27T04:10:45.113Z,-2.60
2023-02-27T04:13:22.271Z,-2.60
2023-02-27T04:16:04.293Z,-2.70
2023-02-27T04:18:49.692Z,-2.60
2023-02-27T04:21:25.782Z,-2.70
2023-02-27T04:24:17.337Z,-2.70
2023-02-27T04:26:53.034Z,-2.70
2023-02-27T04:29:41.317Z,-2.80
2023-02-27T04:32:33.284Z,-2.70
2023-02-27T04:35:06.711Z,-2.70
2023-02-27T04:37:46.552Z,-2.80
2023-02-27T04:40:19.358Z,-2.80
2023-02-27T04:42:50.580Z,-2.90
2023-02-27T04:45:20.898Z,-2.80
2023-02-27T04:47:52.624Z,-2.80
2023-02-27T04:50:25.794Z,-2.80
2023-02-27T04:53:01.891Z,-2.80
2023-02-27T04:55:32.727Z,-2.90
2023-02-27T04:58:12.820Z,-2.90
2023-02-27T05:00:42.835Z,-2.90
2023-02-27T05:03:17.260Z,-2.80
2023-02-27T05:05:46.628Z,-2.80
2023-02-27T05:08:38.619Z,-2.80
2023-02-27T05:11:15.430Z,-2.80
2023-02-27T05:13:58.016Z,-2.80
2023-02-27T05:16:28.794Z,-2.80
2023-02-27T05:18:56.452Z,-2.90
2023-02-27T05:21:47.984Z,-2.80
2023-02-27T05:24:41.235Z,-2.80
2023-02-27T05:27:25.750Z,-2.90
2023-02-27T05:29:56.440Z,-2.90
2023-02-27T05:32:34.686Z,-2.90
2023-02-27T05:35:32.577Z,-2.90
2023-02-27T05:38:17.693Z,-2.90
2023-02-27T05:40:49.624Z,-2.90
2023-02-27T05:43:25.174Z,-2.90
2023-02-27T05:45:57.770Z,-3.00
2023-02-27T05:48:32.460Z,-3.00
2023-02-27T05:50:59.545Z,-3.00
2023-02-27T05:53:31.915Z,-3.00
2023-02-27T05:56:01.284Z,-3.00
2023-02-27T05:58:36.493Z,-3.00
2023-02-27T06:01:06.717Z,-3.10
2023-02-27T06:03:35.223Z,-3.10
2023-02-27T06:06:07.792Z,-3.20
2023-02-27T06:08:35.040Z,-3.10
2023-02-27T06:11:01.715Z,-3.10
2023-02-27T06:13:28.429Z,-3.10
2023-02-27T06:15:55.322Z,-3.10
2023-02-27T06:18:22.916Z,-3.20
2023-02-27T06:20:50.083Z,-3.30
2023-02-27T06:23:17.179Z,-3.20
2023-02-27T06:25:44.006Z,-3.20
2023-02-27T06:28:11.173Z,-3.30
2023-02-27T06:30:38.342Z,-3.20
2023-02-27T06:33:05.378Z,-3.20
2023-02-27T06:35:32.453Z,-3.20
2023-02-27T06:37:59.659Z,-3.20
2023-02-27T06:40:26.497Z,-3.20
2023-02-27T06:42:53.098Z,-3.10
2023-02-27T06:45:19.767Z,-3.00
2023-02-27T06:47:46.377Z,-3.00
2023-02-27T06:50:14.279Z,-2.90
2023-02-27T06:52:41.422Z,-2.80
2023-02-27T06:55:09.472Z,-2.80
2023-02-27T06:57:36.234Z,-2.70
2023-02-27T07:00:10.046Z,-2.60
2023-02-27T07:02:36.656Z,-2.60
2023-02-27T07:05:08.108Z,-2.50
2023-02-27T07:07:38.038Z,-2.40
2023-02-27T07:10:08.138Z,-2.30
2023-02-27T07:12:34.792Z,-2.30
2023-02-27T07:15:01.454Z,-2.20
2023-02-27T07:49:23.068Z,-1.30
2023-02-27T07:56:46.031Z,-1.00
2023-02-27T08:01:40.636Z,-1.00
2023-02-27T08:04:07.239Z,-1.00
2023-02-27T08:06:33.810Z,-1.00
2023-02-27T08:09:00.390Z,-1.00
2023-02-27T08:11:27.168Z,-0.90
2023-02-27T08:31:13.727Z,-0.40
2023-02-27T08:33:40.310Z,-0.50
2023-02-27T08:46:00.665Z,-0.10
2023-02-27T08:48:27.263Z,0.10
2023-02-27T08:50:54.359Z,0.30
2023-02-27T08:53:21.901Z,0.30
2023-02-27T08:55:51.993Z,0.30
2023-02-27T08:58:18.956Z,0.40
2023-02-27T09:00:46.421Z,0.40
2023-02-27T09:03:13.482Z,0.50
2023-02-27T09:15:31.738Z,0.80
2023-02-27T09:18:02.893Z,0.90
2023-02-27T09:20:35.664Z,0.90
2023-02-27T09:23:03.361Z,0.90
2023-02-27T09:25:30.324Z,1.00
2023-02-27T09:27:56.936Z,1.00
2023-02-27T09:32:53.515Z,1.30
2023-02-27T09:48:20.595Z,1.50
2023-02-27T09:50:48.958Z,1.40
2023-02-27T09:53:31.238Z,1.40
2023-02-27T09:56:09.872Z,1.50
2023-02-27T09:58:56.118Z,1.80
2023-02-27T10:01:32.160Z,1.80
2023-02-27T10:04:18.372Z,1.80
2023-02-27T10:09:37.451Z,1.70
2023-02-27T10:12:15.717Z,1.90
2023-02-27T10:19:54.499Z,2.00
2023-02-27T10:22:35.089Z,2.10
2023-02-27T10:25:29.839Z,2.10
2023-02-27T10:28:08.867Z,2.20
2023-02-27T10:30:36.016Z,2.20
2023-02-27T10:33:07.649Z,2.60
2023-02-27T10:35:40.229Z,2.50
2023-02-27T10:38:34.366Z,2.50
2023-02-27T10:43:29.709Z,2.90
2023-02-27T10:45:56.759Z,2.80
2023-02-27T10:48:23.430Z,2.70
2023-02-27T10:50:52.159Z,2.90
2023-02-27T10:53:20.611Z,3.10
2023-02-27T10:55:59.184Z,3.00
2023-02-27T10:58:28.582Z,2.90
2023-02-27T11:00:58.352Z,2.90
2023-02-27T11:03:31.588Z,3.10
2023-02-27T11:06:30.485Z,3.00
2023-02-27T11:09:23.570Z,3.20
2023-02-27T11:11:51.369Z,3.00
2023-02-27T11:14:30.566Z,3.00
2023-02-27T11:16:59.766Z,2.80
2023-02-27T11:22:20.683Z,3.40
2023-02-27T11:24:47.856Z,3.50
2023-02-27T11:27:28.673Z,3.60
2023-02-27T11:30:01.663Z,3.80
2023-02-27T11:32:44.322Z,3.90
2023-02-27T11:35:26.748Z,3.40
2023-02-27T11:37:56.104Z,3.10
2023-02-27T11:40:29.771Z,3.60
2023-02-27T11:43:01.809Z,3.60
2023-02-27T11:46:09.853Z,3.80
2023-02-27T11:48:28.385Z,3.70
2023-02-27T11:51:30.211Z,3.80
2023-02-27T11:54:25.988Z,3.60
2023-02-27T11:57:08.856Z,3.90
2023-02-27T11:59:57.823Z,3.70
2023-02-27T12:02:38.988Z,4.40
2023-02-27T12:05:05.916Z,4.60
2023-02-27T12:07:59.219Z,4.80
2023-02-27T12:10:30.581Z,4.00
2023-02-27T12:13:12.523Z,3.90
2023-02-27T12:16:00.186Z,3.70
2023-02-27T12:18:49.628Z,3.60
2023-02-27T12:21:41.335Z,3.20
2023-02-27T12:24:22.315Z,3.40
2023-02-27T12:26:55.895Z,3.60
2023-02-27T12:29:34.474Z,4.10
2023-02-27T12:32:24.787Z,4.30
2023-02-27T12:35:02.504Z,3.60
2023-02-27T12:37:33.448Z,2.90
2023-02-27T12:40:05.958Z,2.80
2023-02-27T12:42:52.269Z,2.90
2023-02-27T12:45:40.633Z,2.90
2023-02-27T12:48:19.682Z,3.00
2023-02-27T12:51:09.187Z,2.90
2023-02-27T12:53:54.330Z,2.80
2023-02-27T12:56:23.715Z,3.10
2023-02-27T12:59:06.940Z,3.00
2023-02-27T13:01:53.083Z,3.00
2023-02-27T13:04:27.991Z,3.10
2023-02-27T13:07:02.128Z,3.30
2023-02-27T13:09:59.304Z,3.40
2023-02-27T13:12:39.870Z,3.20
2023-02-27T13:15:19.756Z,3.20
2023-02-27T13:17:55.099Z,3.50
2023-02-27T13:20:21.648Z,3.50
2023-02-27T13:23:18.602Z,3.70
2023-02-27T13:25:50.885Z,3.90
2023-02-27T13:31:38.937Z,3.80
2023-02-27T13:34:17.636Z,3.00
2023-02-27T13:36:48.723Z,3.20
2023-02-27T13:39:41.119Z,3.30
2023-02-27T13:42:33.883Z,2.90
2023-02-27T13:45:03.118Z,3.00
2023-02-27T13:47:29.679Z,3.20
2023-02-27T13:50:01.907Z,3.30
2023-02-27T13:52:36.532Z,3.20
2023-02-27T13:55:12.159Z,3.10
2023-02-27T13:57:39.293Z,3.10
2023-02-27T14:00:25.171Z,3.00
2023-02-27T14:03:00.576Z,2.60
2023-02-27T14:05:47.572Z,2.40
2023-02-27T14:08:26.226Z,2.50
2023-02-27T14:11:11.015Z,2.40
2023-02-27T14:13:57.576Z,2.40
2023-02-27T14:16:44.150Z,2.70
2023-02-27T14:19:19.746Z,2.80
2023-02-27T14:21:50.211Z,3.00
2023-02-27T14:24:19.898Z,3.20
2023-02-27T14:26:46.819Z,3.10
2023-02-27T14:29:30.839Z,2.80
2023-02-27T14:32:01.250Z,2.70
2023-02-27T14:34:28.433Z,2.60
2023-02-27T14:36:59.124Z,2.70
2023-02-27T14:39:35.551Z,2.70
2023-02-27T14:42:15.408Z,2.90
2023-02-27T14:44:45.477Z,2.80
2023-02-27T14:47:20.342Z,2.90
2023-02-27T14:49:48.024Z,2.70
2023-02-27T14:52:26.510Z,2.50
2023-02-27T14:55:05.404Z,2.30
2023-02-27T14:57:31.969Z,2.20
2023-02-27T14:59:58.538Z,2.30
2023-02-27T15:02:33.720Z,2.40
2023-02-27T15:05:03.337Z,2.50
2023-02-27T15:07:33.244Z,2.50
2023-02-27T15:10:04.193Z,2.70
2023-02-27T15:12:31.920Z,2.50
2023-02-27T15:15:01.378Z,2.50
2023-02-27T15:17:38.084Z,2.40
2023-02-27T15:20:24.541Z,2.50
2023-02-27T15:22:51.557Z,2.40
2023-02-27T15:25:32.223Z,2.20
2023-02-27T15:28:04.556Z,2.20
2023-02-27T15:30:31.913Z,2.20
2023-02-27T15:33:00.372Z,2.30
2023-02-27T15:35:37.460Z,2.30
2023-02-27T15:38:04.661Z,2.40
2023-02-27T15:40:33.209Z,2.40
2023-02-27T15:43:00.613Z,2.20
2023-02-27T15:45:31.406Z,2.10
2023-02-27T15:47:58.460Z,2.00
2023-02-27T15:50:26.693Z,2.00
2023-02-27T15:53:04.738Z,2.10
2023-02-27T15:55:35.319Z,2.10
2023-02-27T15:58:03.678Z,2.00
2023-02-27T16:00:31.584Z,1.90
2023-02-27T16:02:59.352Z,2.00
2023-02-27T16:05:38.832Z,1.80
2023-02-27T16:08:06.753Z,1.90
2023-02-27T16:10:40.100Z,1.80
2023-02-27T16:13:35.661Z,1.90
2023-02-27T16:16:05.591Z,1.80
2023-02-27T16:18:45.869Z,1.80
2023-02-27T16:21:18.020Z,1.70
2023-02-27T16:23:46.036Z,1.60
2023-02-27T16:26:32.048Z,1.60
2023-02-27T16:29:03.884Z,1.60
2023-02-27T16:31:32.284Z,1.50
2023-02-27T16:34:14.476Z,1.50
2023-02-27T16:36:42.898Z,1.50
2023-02-27T16:39:13.328Z,1.50
2023-02-27T16:41:40.017Z,1.40
2023-02-27T16:44:06.559Z,1.40
2023-02-27T16:46:33.179Z,1.40
2023-02-27T16:49:04.517Z,1.40
2023-02-27T16:51:37.606Z,1.40
2023-02-27T16:54:06.474Z,1.40
2023-02-27T16:56:38.400Z,1.40
2023-02-27T16:59:05.987Z,1.40
2023-02-27T17:01:34.217Z,1.30
2023-02-27T17:04:01.126Z,1.30
2023-02-27T17:06:28.348Z,1.30
2023-02-27T17:08:56.004Z,1.30
2023-02-27T17:11:22.676Z,1.30
2023-02-27T17:13:49.248Z,1.30
2023-02-27T17:16:15.958Z,1.30
2023-02-27T17:18:43.982Z,1.30
2023-02-27T17:21:10.518Z,1.30
2023-02-27T17:23:37.074Z,1.30
2023-02-27T17:26:04.325Z,1.20
2023-02-27T17:28:31.011Z,1.30
2023-02-27T17:30:57.730Z,1.30
2023-02-27T17:33:24.403Z,1.30
2023-02-27T17:35:52.887Z,1.20
2023-02-27T17:38:19.542Z,1.20
2023-02-27T17:40:46.132Z,1.20
2023-02-27T17:43:12.723Z,1.30
2023-02-27T17:45:39.344Z,1.20
2023-02-27T17:48:06.278Z,1.20
2023-02-27T17:50:34.394Z,1.20
2023-02-27T17:53:00.982Z,1.10
2023-02-27T17:55:27.542Z,1.10
2023-02-27T17:57:54.140Z,1.10
2023-02-27T18:00:21.147Z,1.10
2023-02-27T18:02:48.068Z,1.10
2023-02-27T18:05:15.125Z,1.10
2023-02-27T18:07:41.700Z,1.20
2023-02-27T18:10:09.703Z,1.10
2023-02-27T18:12:37.054Z,1.10
2023-02-27T18:15:04.235Z,1.00
2023-02-27T18:17:31.176Z,1.00
2023-02-27T18:19:58.075Z,1.00
2023-02-27T18:22:25.568Z,1.00
2023-02-27T18:24:54.039Z,1.00
2023-02-27T18:27:22.148Z,1.00
2023-02-27T18:29:49.614Z,0.90
2023-02-27T18:32:17.199Z,0.90
2023-02-27T18:34:43.890Z,0.90
2023-02-27T18:37:10.868Z,0.80
2023-02-27T18:39:37.835Z,0.80
2023-02-27T18:42:06.682Z,0.70
2023-02-27T18:44:33.491Z,0.70
2023-02-27T18:47:00.081Z,0.60
2023-02-27T18:49:26.707Z,0.60
2023-02-27T18:51:53.277Z,0.60
2023-02-27T18:54:19.943Z,0.60
2023-02-27T18:56:48.422Z,0.70
2023-02-27T18:59:15.065Z,0.70
2023-02-27T19:01:41.791Z,0.80
2023-02-27T19:04:09.386Z,0.70
2023-02-27T19:06:40.768Z,0.80
2023-02-27T19:09:09.869Z,0.80
2023-02-27T19:11:36.950Z,0.80
2023-02-27T19:14:06.060Z,0.80
2023-02-27T19:16:33.788Z,0.80
2023-02-27T19:19:02.232Z,0.70
2023-02-27T19:21:29.335Z,0.70
2023-02-27T19:23:56.076Z,0.70
2023-02-27T19:26:24.127Z,0.70
2023-02-27T19:28:54.888Z,0.60
2023-02-27T19:31:23.567Z,0.50
2023-02-27T19:33:50.643Z,0.40
2023-02-27T19:36:19.796Z,0.30
2023-02-27T19:38:46.607Z,0.30
2023-02-27T19:41:16.607Z,0.30
2023-02-27T19:43:43.282Z,0.20
2023-02-27T19:46:15.792Z,0.10
2023-02-27T19:48:43.086Z,0.10
2023-02-27T19:51:12.470Z,0.00
2023-02-27T19:53:40.397Z,0.00
2023-02-27T19:56:10.848Z,-0.10
2023-02-27T19:58:39.207Z,-0.20
2023-02-27T20:01:06.671Z,-0.20
2023-02-27T20:03:34.386Z,-0.30
2023-02-27T20:06:01.006Z,-0.40
2023-02-27T20:08:27.779Z,-0.40
2023-02-27T20:11:00.134Z,-0.50
2023-02-27T20:13:27.419Z,-0.50
2023-02-27T20:16:05.401Z,-0.50
2023-02-27T20:18:32.869Z,-0.50
2023-02-27T20:21:08.662Z,-0.60
2023-02-27T20:23:38.269Z,-0.70
2023-02-27T20:26:21.755Z,-0.80
2023-02-27T20:28:49.871Z,-0.90
2023-02-27T20:31:18.994Z,-0.90
2023-02-27T20:33:46.312Z,-1.30
2023-02-27T20:36:13.939Z,-0.90
2023-02-27T20:38:40.930Z,-0.80
2023-02-27T20:41:10.099Z,-0.80
2023-02-27T20:43:42.722Z,-0.80
2023-02-27T20:46:13.377Z,-0.80
2023-02-27T20:48:40.144Z,-0.80
2023-02-27T20:51:13.392Z,-0.80
2023-02-27T20:53:43.001Z,-0.90
2023-02-27T20:56:10.932Z,-1.00
2023-02-27T20:58:38.288Z,-0.80
2023-02-27T21:01:13.039Z,-0.90
2023-02-27T21:03:41.277Z,-0.80
2023-02-27T21:06:10.019Z,-0.90
2023-02-27T21:08:41.870Z,-1.10
2023-02-27T21:11:19.341Z,-0.90
2023-02-27T21:13:46.869Z,-1.00
2023-02-27T21:16:15.278Z,-0.90
2023-02-27T21:18:42.846Z,-0.90
2023-02-27T21:21:13.086Z,-0.80
2023-02-27T21:23:42.448Z,-0.90
2023-02-27T21:26:20.068Z,-0.90
2023-02-27T21:29:01.561Z,-0.80
2023-02-27T21:31:31.186Z,-0.70
2023-02-27T21:34:00.550Z,-0.70
2023-02-27T21:36:29.529Z,-0.80
2023-02-27T21:39:00.940Z,-0.90
2023-02-27T21:41:28.815Z,-0.80
2023-02-27T21:44:04.187Z,-0.50
2023-02-27T21:46:31.838Z,-0.90
2023-02-27T21:48:58.889Z,-0.90
2023-02-27T21:51:38.724Z,-1.00
2023-02-27T21:54:07.236Z,-0.90
2023-02-27T21:56:33.836Z,-0.90
2023-02-27T21:59:01.836Z,-0.80
2023-02-27T22:01:28.971Z,-0.80
2023-02-27T22:03:56.191Z,-0.70
2023-02-27T22:06:25.309Z,-0.70
2023-02-27T22:08:56.465Z,-0.70
2023-02-27T22:11:24.622Z,-0.70
2023-02-27T22:13:51.217Z,-0.70
2023-02-27T22:16:18.863Z,-0.80
2023-02-27T22:18:46.477Z,-0.80
2023-02-27T22:21:17.108Z,-0.80
2023-02-27T22:23:45.154Z,-0.80
2023-02-27T22:26:15.005Z,-0.90
2023-02-27T22:28:41.917Z,-1.00
2023-02-27T22:31:11.714Z,-1.10
2023-02-27T22:33:39.836Z,-1.10
2023-02-27T22:36:11.597Z,-1.10
2023-02-27T22:38:38.371Z,-1.20
2023-02-27T22:41:10.392Z,-1.40
2023-02-27T22:43:39.569Z,-1.50
2023-02-27T22:46:07.834Z,-1.50
2023-02-27T22:48:34.684Z,-1.60
2023-02-27T22:51:03.620Z,-1.50
2023-02-27T22:53:33.002Z,-1.50
2023-02-27T22:55:59.820Z,-1.50
2023-02-27T22:58:26.397Z,-1.50
2023-02-27T23:00:54.369Z,-1.50
2023-02-27T23:03:20.946Z,-1.50
2023-02-27T23:05:48.674Z,-1.60
2023-02-27T23:08:16.431Z,-1.60
2023-02-27T23:10:43.293Z,-1.70
2023-02-27T23:13:10.985Z,-1.70
2023-02-27T23:15:38.612Z,-1.60
2023-02-27T23:18:06.798Z,-1.90
2023-02-27T23:20:37.021Z,-1.80
2023-02-27T23:23:05.380Z,-1.80
2023-02-27T23:25:33.824Z,-1.70
2023-02-27T23:28:01.527Z,-1.80
2023-02-27T23:30:29.097Z,-1.80
2023-02-27T23:32:56.852Z,-1.80
2023-02-27T23:35:24.679Z,-1.90
2023-02-27T23:37:53.167Z,-1.90
2023-02-27T23:40:21.193Z,-1.90
2023-02-27T23:43:07.312Z,-2.00
2023-02-27T23:45:33.918Z,-1.90
2023-02-27T23:48:01.720Z,-1.90
2023-02-27T23:50:34.617Z,-1.90
2023-02-27T23:53:01.523Z,-1.90
2023-02-27T23:55:33.608Z,-2.00
2023-02-27T23:58:01.477Z,-1.90
